createdAt,value
2022-09-13T00:01:51.938Z,17.20
2022-09-13T00:04:22.536Z,17.10
2022-09-13T00:06:52.371Z,17.10
2022-09-13T00:09:22.519Z,17.10
2022-09-13T00:11:51.864Z,17.10
2022-09-13T00:14:22.236Z,17.10
2022-09-13T00:16:53.125Z,17.10
2022-09-13T00:19:26.948Z,17.10
2022-09-13T00:21:57.088Z,17.10
2022-09-13T00:24:27.682Z,17.10
2022-09-13T00:26:58.070Z,17.10
2022-09-13T00:29:27.201Z,17.10
2022-09-13T00:31:58.284Z,17.10
2022-09-13T00:34:33.005Z,17.10
2022-09-13T00:37:03.593Z,17.20
2022-09-13T00:39:33.558Z,17.20
2022-09-13T00:42:18.216Z,17.10
2022-09-13T00:45:13.222Z,17.10
2022-09-13T00:48:07.539Z,17.00
2022-09-13T00:50:37.907Z,17.00
2022-09-13T00:53:26.004Z,16.90
2022-09-13T00:56:17.391Z,16.90
2022-09-13T00:59:02.587Z,17.00
2022-09-13T01:01:48.005Z,16.90
2022-09-13T01:04:20.197Z,16.90
2022-09-13T01:06:51.167Z,16.90
2022-09-13T01:09:21.716Z,16.80
2022-09-13T01:12:20.698Z,16.80
2022-09-13T01:14:50.931Z,16.80
2022-09-13T01:17:22.819Z,16.80
2022-09-13T01:19:52.369Z,16.70
2022-09-13T01:23:02.920Z,16.60
2022-09-13T01:26:18.107Z,16.60
2022-09-13T01:29:12.947Z,16.50
2022-09-13T01:32:11.117Z,16.60
2022-09-13T01:35:21.680Z,16.60
2022-09-13T01:38:11.649Z,16.60
2022-09-13T01:41:10.037Z,16.70
2022-09-13T01:43:57.687Z,16.70
2022-09-13T01:46:49.828Z,16.80
2022-09-13T01:49:42.342Z,16.80
2022-09-13T01:52:29.451Z,16.80
2022-09-13T01:55:20.645Z,16.80
2022-09-13T01:58:35.748Z,16.80
2022-09-13T02:01:17.117Z,16.70
2022-09-13T02:04:21.217Z,16.70
2022-09-13T02:07:04.026Z,16.70
2022-09-13T02:09:46.920Z,16.60
2022-09-13T02:12:20.992Z,16.50
2022-09-13T02:15:26.312Z,16.40
2022-09-13T02:18:16.046Z,16.40
2022-09-13T02:20:50.766Z,16.20
2022-09-13T02:23:34.664Z,16.10
2022-09-13T02:26:09.217Z,16.00
2022-09-13T02:28:43.154Z,16.00
2022-09-13T02:31:12.074Z,16.00
2022-09-13T02:33:51.676Z,16.10
2022-09-13T02:36:53.742Z,16.10
2022-09-13T02:39:27.347Z,16.10
2022-09-13T02:42:19.642Z,16.10
2022-09-13T02:44:58.109Z,16.20
2022-09-13T02:47:42.472Z,16.10
2022-09-13T02:50:42.942Z,16.10
2022-09-13T02:53:52.629Z,16.10
2022-09-13T02:57:14.179Z,16.20
2022-09-13T02:59:50.994Z,16.20
2022-09-13T03:02:30.327Z,16.20
2022-09-13T03:05:14.433Z,16.10
2022-09-13T03:07:43.246Z,16.00
2022-09-13T03:10:15.621Z,15.90
2022-09-13T03:13:11.677Z,15.90
2022-09-13T03:16:10.140Z,16.00
2022-09-13T03:18:49.404Z,16.00
2022-09-13T03:21:38.097Z,16.00
2022-09-13T03:24:30.609Z,15.90
2022-09-13T03:27:41.515Z,16.00
2022-09-13T03:30:16.125Z,16.00
2022-09-13T03:33:27.302Z,16.00
2022-09-13T03:36:37.711Z,15.90
2022-09-13T03:39:39.583Z,15.80
2022-09-13T03:42:20.966Z,15.80
2022-09-13T03:44:53.852Z,15.80
2022-09-13T03:47:23.873Z,15.80
2022-09-13T03:49:55.378Z,15.90
2022-09-13T03:52:27.894Z,15.80
2022-09-13T03:54:58.181Z,15.80
2022-09-13T03:57:25.433Z,15.80
2022-09-13T03:59:57.421Z,15.90
2022-09-13T04:02:27.839Z,15.90
2022-09-13T04:04:59.176Z,15.90
2022-09-13T04:07:33.374Z,15.90
2022-09-13T04:10:03.066Z,15.80
2022-09-13T04:12:35.486Z,15.80
2022-09-13T04:15:05.913Z,15.80
2022-09-13T04:17:35.617Z,15.70
2022-09-13T04:20:08.139Z,15.60
2022-09-13T04:22:38.782Z,15.60
2022-09-13T04:25:11.806Z,15.60
2022-09-13T04:27:43.536Z,15.50
2022-09-13T04:30:15.606Z,15.50
2022-09-13T04:32:45.975Z,15.50
2022-09-13T04:35:21.368Z,15.50
2022-09-13T04:37:52.196Z,15.60
2022-09-13T04:40:26.225Z,15.50
2022-09-13T04:42:57.573Z,15.60
2022-09-13T04:45:25.502Z,15.60
2022-09-13T04:47:57.805Z,15.60
2022-09-13T04:50:26.404Z,15.60
2022-09-13T04:52:56.618Z,15.50
2022-09-13T04:55:29.990Z,15.70
2022-09-13T04:58:16.268Z,15.70
2022-09-13T05:00:46.717Z,15.70
2022-09-13T05:03:17.964Z,15.70
2022-09-13T05:05:48.368Z,15.60
2022-09-13T05:08:21.476Z,15.70
2022-09-13T05:10:53.086Z,15.70
2022-09-13T05:13:20.515Z,15.70
2022-09-13T05:15:48.625Z,15.70
2022-09-13T05:18:16.403Z,15.70
2022-09-13T05:20:47.906Z,15.70
2022-09-13T05:23:18.813Z,15.80
2022-09-13T05:25:47.386Z,15.90
2022-09-13T05:28:19.600Z,15.90
2022-09-13T05:31:01.484Z,16.00
2022-09-13T05:33:34.235Z,15.90
2022-09-13T05:36:09.414Z,16.00
2022-09-13T05:38:40.930Z,16.00
2022-09-13T05:41:09.854Z,15.90
2022-09-13T05:43:41.988Z,15.90
2022-09-13T05:46:22.519Z,15.90
2022-09-13T05:48:53.788Z,15.90
2022-09-13T05:51:25.612Z,16.00
2022-09-13T05:54:00.178Z,15.80
2022-09-13T05:56:32.542Z,15.80
2022-09-13T05:59:03.922Z,15.70
2022-09-13T06:01:33.649Z,15.80
2022-09-13T06:04:04.628Z,15.80
2022-09-13T06:06:37.733Z,15.90
2022-09-13T06:09:19.369Z,15.90
2022-09-13T06:11:51.812Z,15.90
2022-09-13T06:14:20.150Z,15.90
2022-09-13T06:16:50.860Z,15.80
2022-09-13T06:19:20.514Z,15.80
2022-09-13T06:21:48.385Z,15.90
2022-09-13T06:24:22.445Z,15.90
2022-09-13T06:26:53.025Z,15.90
2022-09-13T06:29:23.028Z,15.90
2022-09-13T06:31:52.898Z,15.90
2022-09-13T06:34:20.441Z,16.00
2022-09-13T06:36:50.672Z,16.00
2022-09-13T06:39:23.041Z,16.00
2022-09-13T06:41:53.238Z,16.10
2022-09-13T06:44:34.123Z,16.10
2022-09-13T06:47:02.640Z,16.20
2022-09-13T06:49:35.259Z,16.20
2022-09-13T06:52:04.559Z,16.30
2022-09-13T06:54:34.917Z,16.30
2022-09-13T06:57:06.321Z,16.40
2022-09-13T06:59:36.095Z,16.50
2022-09-13T07:02:06.082Z,16.50
2022-09-13T07:04:36.893Z,16.60
2022-09-13T07:07:07.742Z,16.60
2022-09-13T07:09:36.932Z,16.60
2022-09-13T07:12:17.672Z,16.70
2022-09-13T07:14:48.437Z,16.80
2022-09-13T07:17:18.834Z,16.90
2022-09-13T07:19:46.229Z,16.90
2022-09-13T07:22:17.946Z,16.90
2022-09-13T07:24:48.559Z,16.90
2022-09-13T07:27:20.861Z,17.00
2022-09-13T07:29:50.819Z,17.20
2022-09-13T07:32:19.820Z,17.30
2022-09-13T07:34:52.114Z,17.30
2022-09-13T07:37:22.894Z,17.30
2022-09-13T07:39:54.042Z,17.30
2022-09-13T07:42:24.852Z,17.40
2022-09-13T07:44:54.127Z,17.50
2022-09-13T07:47:26.090Z,17.60
2022-09-13T07:49:55.844Z,17.60
2022-09-13T07:52:27.647Z,17.70
2022-09-13T07:54:58.568Z,17.70
2022-09-13T07:57:28.313Z,17.80
2022-09-13T07:59:59.184Z,17.90
2022-09-13T08:02:29.502Z,17.90
2022-09-13T08:05:01.946Z,17.90
2022-09-13T08:07:36.159Z,18.00
2022-09-13T08:10:09.265Z,18.00
2022-09-13T08:12:45.246Z,18.10
2022-09-13T08:15:17.240Z,18.10
2022-09-13T08:17:48.836Z,18.20
2022-09-13T08:20:20.949Z,18.20
2022-09-13T08:22:52.976Z,18.30
2022-09-13T08:25:27.092Z,18.40
2022-09-13T08:28:01.582Z,18.50
2022-09-13T08:30:36.465Z,18.50
2022-09-13T08:33:11.759Z,18.50
2022-09-13T08:35:43.075Z,18.60
2022-09-13T08:38:13.435Z,18.70
2022-09-13T08:40:51.911Z,18.90
2022-09-13T08:43:42.607Z,18.90
2022-09-13T08:46:29.657Z,18.90
2022-09-13T08:49:16.215Z,19.00
2022-09-13T08:51:54.873Z,19.00
2022-09-13T08:54:27.311Z,19.00
2022-09-13T08:57:26.483Z,19.00
2022-09-13T09:00:20.109Z,19.10
2022-09-13T09:03:17.174Z,19.20
2022-09-13T09:06:00.119Z,19.20
2022-09-13T09:08:40.972Z,19.30
2022-09-13T09:11:16.553Z,19.50
2022-09-13T09:14:25.510Z,19.50
2022-09-13T09:17:18.929Z,19.60
2022-09-13T09:20:00.730Z,19.60
2022-09-13T09:22:36.581Z,19.60
2022-09-13T09:25:09.848Z,19.70
2022-09-13T09:27:40.087Z,19.80
2022-09-13T09:30:16.145Z,19.80
2022-09-13T09:33:31.669Z,19.90
2022-09-13T09:36:46.755Z,19.90
2022-09-13T09:39:17.830Z,20.00
2022-09-13T09:41:47.450Z,20.00
2022-09-13T09:44:29.914Z,20.10
2022-09-13T09:47:29.079Z,20.30
2022-09-13T09:50:13.276Z,20.50
2022-09-13T09:53:13.465Z,20.60
2022-09-13T09:56:27.606Z,20.90
2022-09-13T09:58:57.565Z,21.20
2022-09-13T10:01:37.844Z,21.50
2022-09-13T10:04:14.200Z,21.60
2022-09-13T10:06:47.116Z,21.50
2022-09-13T10:09:24.075Z,21.60
2022-09-13T10:12:06.401Z,21.70
2022-09-13T10:14:53.316Z,21.80
2022-09-13T10:17:33.057Z,21.90
2022-09-13T10:20:25.196Z,22.00
2022-09-13T10:23:20.874Z,22.00
2022-09-13T10:26:11.587Z,21.90
2022-09-13T10:29:07.365Z,21.80
2022-09-13T10:31:58.961Z,21.70
2022-09-13T10:34:37.767Z,21.60
2022-09-13T10:37:25.053Z,21.60
2022-09-13T10:40:15.493Z,21.60
2022-09-13T10:43:05.943Z,21.70
2022-09-13T10:45:36.697Z,21.70
2022-09-13T10:48:15.074Z,21.80
2022-09-13T10:51:15.697Z,21.80
2022-09-13T10:53:47.264Z,22.00
2022-09-13T10:56:35.865Z,22.00
2022-09-13T10:59:28.536Z,21.90
2022-09-13T11:02:21.389Z,22.00
2022-09-13T11:05:22.145Z,22.00
2022-09-13T11:08:18.586Z,22.10
2022-09-13T11:11:17.414Z,22.40
2022-09-13T11:14:20.648Z,22.50
2022-09-13T11:16:57.129Z,22.60
2022-09-13T11:19:58.340Z,22.60
2022-09-13T11:23:03.343Z,22.40
2022-09-13T11:25:52.420Z,22.30
2022-09-13T11:28:45.732Z,22.20
2022-09-13T11:31:43.218Z,22.20
2022-09-13T11:34:39.176Z,22.10
2022-09-13T11:37:38.135Z,22.10
2022-09-13T11:41:12.468Z,22.00
2022-09-13T11:44:12.589Z,22.10
2022-09-13T11:47:26.010Z,22.20
2022-09-13T11:50:27.369Z,22.20
2022-09-13T11:53:21.762Z,22.20
2022-09-13T11:56:09.284Z,22.30
2022-09-13T11:59:17.520Z,22.30
2022-09-13T12:02:01.218Z,22.40
2022-09-13T12:04:42.190Z,22.60
2022-09-13T12:07:33.989Z,22.60
2022-09-13T12:10:35.545Z,22.60
2022-09-13T12:13:08.015Z,22.60
2022-09-13T12:15:48.942Z,22.80
2022-09-13T12:18:25.208Z,22.90
2022-09-13T12:21:08.403Z,23.00
2022-09-13T12:24:04.033Z,23.00
2022-09-13T12:26:55.394Z,23.20
2022-09-13T12:29:56.729Z,23.30
2022-09-13T12:32:27.166Z,23.50
2022-09-13T12:35:08.731Z,23.60
2022-09-13T12:38:00.961Z,23.80
2022-09-13T12:41:00.806Z,24.00
2022-09-13T12:44:08.595Z,24.20
2022-09-13T12:47:13.013Z,24.40
2022-09-13T12:53:30.023Z,25.30
2022-09-13T12:56:32.527Z,25.90
2022-09-13T12:59:24.373Z,26.70
2022-09-13T13:02:01.820Z,28.70
2022-09-13T13:07:28.101Z,31.90
2022-09-13T13:09:57.686Z,33.30
2022-09-13T13:12:39.325Z,35.50
2022-09-13T13:15:51.773Z,37.00
2022-09-13T13:18:33.768Z,38.10
2022-09-13T13:21:26.560Z,39.40
2022-09-13T13:24:32.078Z,39.80
2022-09-13T13:27:37.967Z,40.40
2022-09-13T13:30:55.448Z,40.50
2022-09-13T13:33:32.249Z,40.50
2022-09-13T13:36:32.428Z,40.70
2022-09-13T13:39:03.420Z,40.20
2022-09-13T13:41:41.610Z,38.50
2022-09-13T13:44:29.561Z,39.90
2022-09-13T13:47:17.998Z,41.10
2022-09-13T13:50:07.517Z,41.50
2022-09-13T13:52:57.936Z,41.80
2022-09-13T13:55:47.390Z,41.10
2022-09-13T13:58:40.277Z,41.00
2022-09-13T14:01:20.519Z,40.40
2022-09-13T14:04:03.609Z,40.50
2022-09-13T14:07:26.035Z,41.30
2022-09-13T14:10:26.846Z,42.60
2022-09-13T14:13:07.234Z,43.60
2022-09-13T14:15:55.762Z,43.00
2022-09-13T14:19:10.272Z,42.00
2022-09-13T14:21:41.718Z,38.50
2022-09-13T14:24:29.494Z,37.00
2022-09-13T14:27:09.123Z,36.00
2022-09-13T14:29:42.582Z,35.20
2022-09-13T14:32:21.228Z,34.10
2022-09-13T14:35:00.914Z,32.40
2022-09-13T14:37:48.900Z,31.40
2022-09-13T14:40:35.469Z,31.20
2022-09-13T14:43:21.613Z,30.80
2022-09-13T14:45:53.539Z,31.00
2022-09-13T14:48:29.108Z,31.30
2022-09-13T14:51:20.652Z,31.90
2022-09-13T14:53:56.162Z,32.00
2022-09-13T14:56:44.667Z,32.10
2022-09-13T14:59:43.862Z,32.10
2022-09-13T15:02:32.290Z,31.80
2022-09-13T15:05:06.547Z,30.70
2022-09-13T15:07:41.173Z,30.00
2022-09-13T15:10:39.840Z,30.30
2022-09-13T15:13:14.742Z,30.60
2022-09-13T15:15:49.225Z,30.90
2022-09-13T15:18:32.100Z,31.10
2022-09-13T15:21:24.770Z,31.20
2022-09-13T15:23:57.149Z,30.90
2022-09-13T15:26:35.555Z,30.50
2022-09-13T15:29:08.818Z,30.20
2022-09-13T15:31:39.691Z,29.90
2022-09-13T15:34:30.672Z,29.60
2022-09-13T15:37:16.263Z,29.10
2022-09-13T15:39:51.731Z,28.50
2022-09-13T15:42:22.773Z,28.00
2022-09-13T15:44:52.665Z,28.00
2022-09-13T15:47:24.798Z,28.10
2022-09-13T15:49:53.686Z,28.10
2022-09-13T15:52:25.731Z,28.20
2022-09-13T15:54:55.345Z,28.20
2022-09-13T15:57:34.155Z,28.40
2022-09-13T16:00:06.766Z,28.40
2022-09-13T16:02:41.415Z,28.20
2022-09-13T16:05:15.502Z,28.00
2022-09-13T16:07:45.926Z,28.00
2022-09-13T17:08:12.266Z,24.60
2022-09-13T17:10:45.236Z,24.40
2022-09-13T17:13:12.337Z,24.20
2022-09-13T17:15:43.754Z,24.20
2022-09-13T17:18:12.936Z,24.10
2022-09-13T17:23:33.211Z,24.00
2022-09-13T17:26:00.689Z,24.00
2022-09-13T17:28:31.600Z,23.90
2022-09-13T17:31:02.412Z,23.80
2022-09-13T17:33:32.640Z,23.80
2022-09-13T17:36:08.801Z,23.70
2022-09-13T17:38:49.865Z,23.60
2022-09-13T17:41:54.471Z,23.60
2022-09-13T17:44:45.788Z,23.50
2022-09-13T17:47:44.451Z,23.50
2022-09-13T17:50:16.567Z,23.40
2022-09-13T17:52:46.071Z,23.30
2022-09-13T17:55:14.026Z,23.30
2022-09-13T17:57:42.658Z,23.20
2022-09-13T18:00:16.899Z,23.10
2022-09-13T18:02:52.058Z,22.90
2022-09-13T18:05:24.673Z,22.90
2022-09-13T18:07:55.533Z,22.80
2022-09-13T18:10:49.188Z,22.70
2022-09-13T18:13:17.524Z,22.80
2022-09-13T18:16:21.187Z,22.70
2022-09-13T18:18:52.682Z,22.70
2022-09-13T18:21:22.340Z,22.60
2022-09-13T18:23:59.307Z,22.60
2022-09-13T18:26:29.446Z,22.50
2022-09-13T18:29:11.341Z,22.60
2022-09-13T18:31:44.786Z,22.50
2022-09-13T18:34:16.769Z,22.40
2022-09-13T18:36:46.849Z,22.40
2022-09-13T18:39:23.748Z,22.40
2022-09-13T18:41:54.674Z,22.40
2022-09-13T18:44:26.128Z,22.40
2022-09-13T18:46:57.255Z,22.30
2022-09-13T18:49:30.522Z,22.40
2022-09-13T18:51:58.717Z,22.30
2022-09-13T18:54:31.606Z,22.30
2022-09-13T18:57:02.185Z,22.20
2022-09-13T18:59:44.306Z,22.10
2022-09-13T19:02:15.677Z,22.00
2022-09-13T19:04:45.054Z,21.90
2022-09-13T19:07:17.203Z,21.70
